No particular awareness of the weather is required.    There are no Weather-warnings


Meteo18 Weather Cam more information Meteo18 Weather Cam


Thunder radar more information blitzortung!


Rain radar more information rain snow radar


Visit our other weather sites:

Template documentation
and downloads

And another site



Weather Underground History page Text

Daily Summary for October 17, 2017 Units:  English    Metric   Both
« Previous Day
Next Day »
Daily Weekly Monthly Yearly Custom
  High: Low: Average:
Temperature: TemperatureC °F 11.1 °F 16.1 °F
Dew Point: DewpointC °F 8.1 °F 11.4 °F
Humidity: Humidity % 35 % 76 %
Wind Speed: WindSpeedKMH mph 0.0 mph 0.7 mph
Wind Gust: WindSpeedGustKMH mph - -
Wind:- - SSE
Pressure: PressurehPa in 1016.5 in -
Precipitation: 0.0 in    
Historical Graphs
 
 
Tabular Data for October 17, 2017
Time Temperature Dew Point Pressure Wind Wind Speed Wind Gust Humidity Rainfall Rate (Hourly)
TemperatureC °F DewpointC °F PressurehPa in Calm     Humidity % HourlyPrecipMM in
00:02 14.8 °F 13.5 °F 1024.6 in Calm     92 % 0.0 in
00:12 14.7 °F 13.2 °F 1024.3 in Calm     91 % 0.0 in
00:17 14.6 °F 13.1 °F 1024.3 in NNW 1.6 mph   91 % 0.0 in
00:22 14.6 °F 13.3 °F 1024.3 in Calm     92 % 0.0 in
00:32 14.7 °F 13.2 °F 1024.3 in Calm   1.6 mph 91 % 0.0 in
00:37 14.6 °F 13.1 °F 1024.3 in Calm   1.6 mph 91 % 0.0 in
00:42 14.4 °F 12.9 °F 1024.3 in Calm     91 % 0.0 in
00:47 14.3 °F 13.0 °F 1024.3 in Calm     92 % 0.0 in
00:52 14.2 °F 12.9 °F 1024.3 in Calm     92 % 0.0 in
00:57 14.2 °F 13.1 °F 1024.3 in Calm     93 % 0.0 in
01:02 14.4 °F 13.4 °F 1024.3 in Calm     94 % 0.0 in
01:07 14.6 °F 13.5 °F 1024.3 in Calm   1.6 mph 93 % 0.0 in
01:12 14.6 °F 13.3 °F 1024.3 in Calm   1.6 mph 92 % 0.0 in
01:17 14.4 °F 12.9 °F 1024.3 in Calm   1.6 mph 91 % 0.0 in
01:22 14.3 °F 13.0 °F 1024.3 in Calm     92 % 0.0 in
01:27 14.2 °F 12.9 °F 1024.3 in Calm     92 % 0.0 in
01:32 13.8 °F 12.4 °F 1024.3 in SE 3.2 mph   91 % 0.0 in
01:37 12.8 °F 11.4 °F 1024.3 in Calm   4.8 mph 91 % 0.0 in
01:42 12.7 °F 11.6 °F 1024.6 in Calm   4.8 mph 93 % 0.0 in
01:47 13.1 °F 12.2 °F 1024.3 in Calm   4.8 mph 94 % 0.0 in
01:52 13.2 °F 12.3 °F 1024.6 in Calm   4.8 mph 94 % 0.0 in
01:57 13.3 °F 12.5 °F 1024.3 in Calm     95 % 0.0 in
02:02 13.2 °F 12.3 °F 1024.6 in NNW 1.6 mph   94 % 0.0 in
02:07 13.3 °F 12.5 °F 1024.3 in Calm   3.2 mph 95 % 0.0 in
02:12 13.6 °F 12.8 °F 1024.3 in Calm   3.2 mph 95 % 0.0 in
02:17 13.8 °F 13.0 °F 1024.3 in Calm   3.2 mph 95 % 0.0 in
02:22 13.9 °F 13.1 °F 1024.3 in NW 1.6 mph 3.2 mph 95 % 0.0 in
02:27 13.7 °F 12.8 °F 1024.3 in Calm   3.2 mph 94 % 0.0 in
02:32 13.4 °F 12.5 °F 1024.3 in Calm   3.2 mph 94 % 0.0 in
02:42 13.3 °F 12.4 °F 1024.3 in Calm   1.6 mph 94 % 0.0 in
02:47 13.2 °F 12.3 °F 1024.3 in Calm     94 % 0.0 in
02:52 12.5 °F 11.2 °F 1024.3 in Calm   3.2 mph 92 % 0.0 in
02:57 12.2 °F 11.1 °F 1024.3 in Calm   3.2 mph 93 % 0.0 in
03:02 12.5 °F 11.9 °F 1024.3 in Calm   3.2 mph 96 % 0.0 in
03:07 12.7 °F 11.9 °F 1024.3 in Calm   4.8 mph 95 % 0.0 in
03:12 12.7 °F 11.9 °F 1024.3 in North 1.6 mph 4.8 mph 95 % 0.0 in
03:17 13.2 °F 12.6 °F 1024.3 in Calm   3.2 mph 96 % 0.0 in
03:22 13.2 °F 12.4 °F 1024.3 in Calm   3.2 mph 95 % 0.0 in
03:27 13.1 °F 12.3 °F 1024.3 in Calm   1.6 mph 95 % 0.0 in
03:32 13.1 °F 12.3 °F 1024.3 in Calm   1.6 mph 95 % 0.0 in
03:37 13.2 °F 12.4 °F 1024.3 in Calm   1.6 mph 95 % 0.0 in
03:42 13.2 °F 12.4 °F 1024.3 in Calm   1.6 mph 95 % 0.0 in
03:47 13.0 °F 12.2 °F 1024.3 in Calm   1.6 mph 95 % 0.0 in
03:52 12.8 °F 12.0 °F 1024.3 in Calm   1.6 mph 95 % 0.0 in
03:57 12.5 °F 11.6 °F 1024.3 in Calm     94 % 0.0 in
04:02 12.3 °F 11.5 °F 1024.3 in Calm     95 % 0.0 in
04:12 12.1 °F 11.3 °F 1024.3 in Calm     95 % 0.0 in
04:17 12.1 °F 11.3 °F 1024.3 in Calm   1.6 mph 95 % 0.0 in
04:22 12.1 °F 11.3 °F 1023.9 in Calm   1.6 mph 95 % 0.0 in
04:32 12.1 °F 11.5 °F 1024.3 in Calm     96 % 0.0 in
04:42 12.3 °F 11.7 °F 1023.9 in Calm     96 % 0.0 in
04:47 12.2 °F 11.6 °F 1023.9 in Calm   1.6 mph 96 % 0.0 in
04:52 12.2 °F 11.6 °F 1023.9 in Calm   1.6 mph 96 % 0.0 in
04:57 12.1 °F 11.3 °F 1023.9 in NNE 1.6 mph 1.6 mph 95 % 0.0 in
05:02 12.1 °F 11.5 °F 1023.9 in Calm   1.6 mph 96 % 0.0 in
05:22 11.8 °F 11.2 °F 1023.9 in Calm     96 % 0.0 in
05:27 11.7 °F 11.1 °F 1023.9 in Calm     96 % 0.0 in
05:37 11.6 °F 11.0 °F 1023.9 in Calm     96 % 0.0 in
05:42 11.8 °F 11.2 °F 1023.9 in Calm     96 % 0.0 in
05:47 12.0 °F 11.5 °F 1023.6 in Calm     97 % 0.0 in
05:52 12.1 °F 11.6 °F 1023.6 in Calm     97 % 0.0 in
05:57 11.8 °F 11.2 °F 1023.6 in Calm     96 % 0.0 in
06:02 11.8 °F 11.2 °F 1023.6 in Calm     96 % 0.0 in
06:12 11.8 °F 11.2 °F 1023.2 in Calm     96 % 0.0 in
06:17 11.4 °F 10.8 °F 1023.6 in North 1.6 mph   96 % 0.0 in
06:22 11.5 °F 10.9 °F 1023.6 in Calm     96 % 0.0 in
06:32 11.9 °F 11.4 °F 1023.6 in Calm   1.6 mph 97 % 0.0 in
06:42 11.7 °F 11.2 °F 1023.6 in Calm   1.6 mph 97 % 0.0 in
06:52 12.1 °F 11.6 °F 1023.2 in Calm     97 % 0.0 in
07:02 11.8 °F 11.3 °F 1023.2 in Calm     97 % 0.0 in
07:12 11.8 °F 11.3 °F 1023.2 in Calm     97 % 0.0 in
07:22 11.5 °F 10.9 °F 1023.2 in Calm     96 % 0.0 in
07:32 11.7 °F 11.2 °F 1023.2 in Calm     97 % 0.0 in
07:42 11.2 °F 10.6 °F 1023.2 in Calm     96 % 0.0 in
07:52 11.2 °F 10.6 °F 1023.2 in Calm     96 % 0.0 in
07:57 11.3 °F 10.8 °F 1023.2 in Calm     97 % 0.0 in
08:02 11.4 °F 10.9 °F 1023.2 in Calm     97 % 0.0 in
08:12 11.4 °F 10.9 °F 1023.2 in Calm     97 % 0.0 in
08:22 11.3 °F 10.8 °F 1023.2 in Calm     97 % 0.0 in
08:32 11.3 °F 10.8 °F 1023.2 in Calm     97 % 0.0 in
08:37 11.1 °F 10.6 °F 1023.2 in Calm     97 % 0.0 in
08:42 11.2 °F 10.7 °F 1023.2 in Calm     97 % 0.0 in
08:52 11.6 °F 11.1 °F 1023.2 in Calm     97 % 0.0 in
08:57 11.7 °F 11.2 °F 1023.2 in Calm     97 % 0.0 in
09:02 11.8 °F 11.3 °F 1023.2 in Calm     97 % 0.0 in
09:12 11.8 °F 11.3 °F 1023.2 in Calm     97 % 0.0 in
09:17 11.9 °F 11.4 °F 1023.2 in Calm     97 % 0.0 in
09:22 12.1 °F 11.6 °F 1023.2 in Calm     97 % 0.0 in
09:32 12.6 °F 12.1 °F 1023.2 in Calm     97 % 0.0 in
09:42 13.1 °F 12.6 °F 1023.2 in Calm     97 % 0.0 in
09:52 13.8 °F 13.3 °F 1022.9 in Calm     97 % 0.0 in
10:02 14.4 °F 13.9 °F 1022.9 in Calm     97 % 0.0 in
10:12 14.7 °F 13.9 °F 1022.9 in Calm     95 % 0.0 in
10:17 14.9 °F 13.8 °F 1022.9 in Calm     93 % 0.0 in
10:22 15.1 °F 13.6 °F 1022.9 in Calm     91 % 0.0 in
10:32 15.6 °F 13.6 °F 1022.9 in Calm   3.2 mph 88 % 0.0 in
10:37 16.0 °F 13.7 °F 1022.9 in Calm   3.2 mph 86 % 0.0 in
10:42 16.1 °F 13.4 °F 1022.9 in Calm   3.2 mph 84 % 0.0 in
10:52 16.3 °F 13.4 °F 1022.6 in Calm     83 % 0.0 in
11:02 16.3 °F 12.8 °F 1022.2 in Calm     80 % 0.0 in
11:12 16.3 °F 13.0 °F 1022.2 in Calm     81 % 0.0 in
11:17 16.6 °F 13.3 °F 1022.2 in Calm     81 % 0.0 in
11:22 16.9 °F 13.2 °F 1022.2 in Calm     79 % 0.0 in
11:32 17.2 °F 13.1 °F 1021.9 in East 3.2 mph   77 % 0.0 in
11:42 17.9 °F 13.6 °F 1021.9 in Calm   6.4 mph 76 % 0.0 in
11:52 18.6 °F 13.7 °F 1021.9 in Calm   6.4 mph 73 % 0.0 in
12:12 19.4 °F 13.3 °F 1021.6 in Calm   6.4 mph 68 % 0.0 in
12:22 19.9 °F 13.4 °F 1021.6 in SE 3.2 mph 6.4 mph 66 % 0.0 in
12:32 19.9 °F 13.8 °F 1021.2 in Calm   4.8 mph 68 % 0.0 in
12:42 20.4 °F 13.6 °F 1021.2 in East 1.6 mph 8.0 mph 65 % 0.0 in
12:47 20.6 °F 14.0 °F 1021.2 in Calm   6.4 mph 66 % 0.0 in
12:52 21.2 °F 14.1 °F 1021.2 in SSE 1.6 mph 6.4 mph 64 % 0.0 in
13:02 21.3 °F 14.0 °F 1020.9 in SSE 1.6 mph 8.0 mph 63 % 0.0 in
13:07 21.5 °F 14.2 °F 1020.9 in Calm   6.4 mph 63 % 0.0 in
13:12 21.6 °F 14.0 °F 1020.9 in East 3.2 mph 6.4 mph 62 % 0.0 in
13:17 21.7 °F 14.1 °F 1020.5 in East 4.8 mph 4.8 mph 62 % 0.0 in
13:22 21.7 °F 13.8 °F 1020.5 in ENE 4.8 mph 4.8 mph 61 % 0.0 in
13:32 21.8 °F 13.9 °F 1020.2 in ESE 1.6 mph 9.7 mph 61 % 0.0 in
13:37 22.1 °F 14.2 °F 1020.2 in ENE 6.4 mph 9.7 mph 61 % 0.0 in
13:42 22.2 °F 14.3 °F 1019.9 in ENE 4.8 mph 9.7 mph 61 % 0.0 in
13:47 22.4 °F 14.3 °F 1019.9 in ESE 3.2 mph 11.3 mph 60 % 0.0 in
13:52 22.7 °F 14.3 °F 1019.9 in SE 3.2 mph 11.3 mph 59 % 0.0 in
14:02 23.1 °F 14.6 °F 1019.9 in ENE 4.8 mph 9.7 mph 59 % 0.0 in
14:12 23.4 °F 14.4 °F 1019.5 in ENE 3.2 mph 9.7 mph 57 % 0.0 in
14:17 23.5 °F 14.5 °F 1019.5 in SSE 1.6 mph 11.3 mph 57 % 0.0 in
14:27 23.8 °F 14.5 °F 1019.2 in SE 1.6 mph 11.3 mph 56 % 0.0 in
14:32 23.8 °F 14.5 °F 1019.2 in SE 1.6 mph 11.3 mph 56 % 0.0 in
14:42 24.0 °F 14.7 °F 1018.8 in Calm   12.9 mph 56 % 0.0 in
14:52 24.2 °F 14.6 °F 1018.8 in East 1.6 mph 12.9 mph 55 % 0.0 in
15:02 24.4 °F 14.2 °F 1018.5 in NE 3.2 mph 12.9 mph 53 % 0.0 in
15:12 24.3 °F 13.8 °F 1018.5 in ENE 3.2 mph 11.3 mph 52 % 0.0 in
15:17 24.3 °F 13.2 °F 1018.2 in NNE 3.2 mph 9.7 mph 50 % 0.0 in
15:22 24.3 °F 13.5 °F 1018.2 in SE 3.2 mph 9.7 mph 51 % 0.0 in
15:32 24.4 °F 13.3 °F 1018.2 in SSE 3.2 mph 12.9 mph 50 % 0.0 in
15:42 24.5 °F 12.4 °F 1017.8 in ESE 1.6 mph 12.9 mph 47 % 0.0 in
15:47 24.6 °F 11.5 °F 1017.8 in ENE 3.2 mph 12.9 mph 44 % 0.0 in
15:52 24.4 °F 11.4 °F 1017.8 in East 1.6 mph 12.9 mph 44 % 0.0 in
16:02 24.7 °F 10.6 °F 1017.8 in SE 1.6 mph 12.9 mph 41 % 0.0 in
16:12 24.8 °F 8.3 °F 1017.8 in SE 6.4 mph 14.5 mph 35 % 0.0 in
16:17 24.6 °F 8.1 °F 1017.8 in East 4.8 mph 14.5 mph 35 % 0.0 in
16:22 24.6 °F 9.3 °F 1017.8 in SSE 4.8 mph 14.5 mph 38 % 0.0 in
16:32 24.6 °F 8.9 °F 1017.5 in SE 3.2 mph 14.5 mph 37 % 0.0 in
16:42 24.7 °F 9.0 °F 1017.5 in SSE 3.2 mph 11.3 mph 37 % 0.0 in
16:47 24.7 °F 9.8 °F 1017.5 in Calm   12.9 mph 39 % 0.0 in
16:52 24.8 °F 9.5 °F 1017.5 in Calm   12.9 mph 38 % 0.0 in
17:02 24.7 °F 9.8 °F 1017.5 in East 1.6 mph 16.1 mph 39 % 0.0 in
17:12 24.6 °F 8.9 °F 1017.5 in SW 1.6 mph 16.1 mph 37 % 0.0 in
17:17 24.5 °F 10.0 °F 1017.2 in Calm   11.3 mph 40 % 0.0 in
17:22 24.5 °F 9.2 °F 1017.2 in SSE 4.8 mph 11.3 mph 38 % 0.0 in
17:32 24.6 °F 10.1 °F 1017.2 in SE 4.8 mph 11.3 mph 40 % 0.0 in
17:42 24.3 °F 9.8 °F 1017.2 in Calm   8.0 mph 40 % 0.0 in
17:52 24.5 °F 10.0 °F 1017.2 in Calm   8.0 mph 40 % 0.0 in
17:57 24.4 °F 9.9 °F 1016.8 in Calm   6.4 mph 40 % 0.0 in
18:02 24.3 °F 10.2 °F 1016.8 in Calm   6.4 mph 41 % 0.0 in
18:12 23.9 °F 10.2 °F 1016.8 in Calm   3.2 mph 42 % 0.0 in
18:17 23.7 °F 10.4 °F 1016.8 in Calm   3.2 mph 43 % 0.0 in
18:22 23.4 °F 10.1 °F 1016.8 in Calm   3.2 mph 43 % 0.0 in
18:32 22.8 °F 9.6 °F 1016.8 in Calm   8.0 mph 43 % 0.0 in
18:42 21.8 °F 9.7 °F 1016.8 in Calm   3.2 mph 46 % 0.0 in
18:47 21.6 °F 9.8 °F 1016.8 in Calm     47 % 0.0 in
18:52 21.4 °F 9.6 °F 1016.5 in Calm     47 % 0.0 in
18:57 21.1 °F 9.3 °F 1016.5 in Calm     47 % 0.0 in
19:02 20.6 °F 9.8 °F 1016.8 in Calm     50 % 0.0 in
19:12 19.5 °F 9.7 °F 1016.8 in Calm   1.6 mph 53 % 0.0 in
19:17 19.1 °F 9.6 °F 1016.8 in Calm   1.6 mph 54 % 0.0 in
19:22 18.9 °F 9.7 °F 1016.8 in Calm   1.6 mph 55 % 0.0 in
19:32 18.5 °F 9.6 °F 1016.5 in Calm     56 % 0.0 in
19:37 18.2 °F 9.8 °F 1016.5 in Calm     58 % 0.0 in
19:47 17.8 °F 10.2 °F 1016.5 in North 3.2 mph 3.2 mph 61 % 0.0 in
19:52 17.6 °F 10.2 °F 1016.5 in Calm   3.2 mph 62 % 0.0 in
19:57 17.2 °F 10.3 °F 1016.5 in NNW 1.6 mph 3.2 mph 64 % 0.0 in
20:02 17.0 °F 9.7 °F 1016.8 in NNW 1.6 mph 3.2 mph 62 % 0.0 in
20:07 16.8 °F 9.5 °F 1016.5 in Calm   1.6 mph 62 % 0.0 in
20:12 16.8 °F 9.7 °F 1016.5 in NNW 1.6 mph 1.6 mph 63 % 0.0 in
20:17 16.6 °F 10.0 °F 1016.5 in NNW 1.6 mph 1.6 mph 65 % 0.0 in
20:22 16.3 °F 9.9 °F 1016.5 in Calm   3.2 mph 66 % 0.0 in
20:27 16.0 °F 9.9 °F 1016.5 in North 1.6 mph 3.2 mph 67 % 0.0 in
20:32 15.9 °F 10.0 °F 1016.5 in Calm   3.2 mph 68 % 0.0 in
20:37 15.9 °F 10.0 °F 1016.5 in Calm   3.2 mph 68 % 0.0 in
20:42 15.8 °F 10.1 °F 1016.5 in Calm   1.6 mph 69 % 0.0 in
20:47 15.6 °F 9.9 °F 1016.5 in Calm   1.6 mph 69 % 0.0 in
20:52 15.3 °F 9.6 °F 1016.5 in Calm   1.6 mph 69 % 0.0 in
21:02 15.0 °F 10.0 °F 1016.5 in Calm     72 % 0.0 in
21:07 14.7 °F 9.9 °F 1016.5 in Calm     73 % 0.0 in
21:12 14.2 °F 10.0 °F 1016.5 in Calm     76 % 0.0 in
21:17 13.9 °F 9.9 °F 1016.5 in Calm     77 % 0.0 in
21:22 13.7 °F 9.7 °F 1016.5 in Calm     77 % 0.0 in
21:27 13.8 °F 9.6 °F 1016.5 in Calm     76 % 0.0 in
21:32 13.6 °F 9.6 °F 1016.5 in Calm     77 % 0.0 in
21:42 13.7 °F 9.5 °F 1016.5 in WNW 3.2 mph   76 % 0.0 in
21:47 13.7 °F 9.1 °F 1016.5 in West 1.6 mph 4.8 mph 74 % 0.0 in
21:52 13.9 °F 9.3 °F 1016.5 in Calm   4.8 mph 74 % 0.0 in
21:57 14.0 °F 9.2 °F 1016.5 in Calm   4.8 mph 73 % 0.0 in
22:02 13.9 °F 9.1 °F 1016.5 in Calm   4.8 mph 73 % 0.0 in
22:07 13.9 °F 9.1 °F 1016.8 in Calm   1.6 mph 73 % 0.0 in
22:17 13.2 °F 9.1 °F 1016.8 in Calm   1.6 mph 76 % 0.0 in
22:27 12.9 °F 9.2 °F 1016.8 in Calm     78 % 0.0 in
22:32 13.0 °F 9.1 °F 1016.8 in Calm     77 % 0.0 in
22:37 13.1 °F 9.2 °F 1016.8 in Calm     77 % 0.0 in
22:47 13.1 °F 9.0 °F 1016.8 in Calm     76 % 0.0 in
22:52 12.9 °F 9.0 °F 1016.8 in Calm     77 % 0.0 in
22:57 12.8 °F 8.9 °F 1016.8 in WNW 3.2 mph 3.2 mph 77 % 0.0 in
23:02 12.8 °F 8.7 °F 1016.8 in Calm   3.2 mph 76 % 0.0 in
23:12 11.6 °F 8.3 °F 1017.2 in Calm   4.8 mph 80 % 0.0 in
23:17 11.7 °F 8.7 °F 1017.2 in Calm   8.0 mph 82 % 0.0 in
23:22 11.8 °F 8.6 °F 1017.2 in Calm   8.0 mph 81 % 0.0 in
23:32 12.1 °F 8.8 °F 1017.2 in Calm     80 % 0.0 in
23:37 12.1 °F 8.6 °F 1017.2 in Calm   1.6 mph 79 % 0.0 in
23:42 12.3 °F 8.6 °F 1017.2 in Calm   1.6 mph 78 % 0.0 in
23:47 12.7 °F 8.8 °F 1017.2 in Calm   1.6 mph 77 % 0.0 in
23:52 12.7 °F 8.6 °F 1017.2 in WNW 3.2 mph 3.2 mph 76 % 0.0 in
23:57 12.3 °F 8.4 °F 1017.2 in Calm   4.8 mph 77 % 0.0 in
Meteo18
Compliments of Weather Underground - 4 mb

Script developed by  Jim McMurry - jmcmurry@mwt.net Adapted for the template by  Wim van der Kuil - Leuven-Template.eu

You find our weather info also at:

European Weather Network

Weather Underground

Equipment we use:

Weather-station
Davis Vue

Weather-program
Meteobridge

Weather-server
Raspberry PI 2 B+

Provider
1 and 1

Davis Vue

Meteobridge

Raspberry PI 2 B+

1 and 1